Crawford, Maine
Current Conditions -  °F | °C
As of 11:15 AM on Wednesday 28 Jan 2015 (Local Time) from KBHB Reporting Station
Overcast Overcast  
Wind Chill:   Ceiling: 4000
Heat Index: 19°   Visibility: 8mi
Dew Point: 16°   Wind: 15mph
Humidity: 86%   Direction: 340°NNW
Pressure: 29.82"   Gusts: 25mph
Location:  45.0659°N, 67.4987°W
Report Text: KBHB 281615Z 34013G22KT 8SM FEW023 OVC040 M07/M09 A2982 RMK AO1
Loading
Personal Weather Stations






























Interactive Weather Map New forecast layout! Learn more

10-Day Weather Forecast

Advertisements
Track Severe Weather on mobile